createdAt,value
2023-03-01T00:04:47.986Z,6.80
2023-03-01T00:09:41.185Z,6.75
2023-03-01T00:14:33.077Z,7.03
2023-03-01T00:19:25.115Z,7.00
2023-03-01T00:24:17.876Z,6.47
2023-03-01T00:29:09.751Z,7.70
2023-03-01T00:34:04.510Z,6.88
2023-03-01T00:38:56.714Z,7.30
2023-03-01T00:43:48.878Z,6.83
2023-03-01T00:48:40.920Z,7.23
2023-03-01T00:53:33.129Z,7.53
2023-03-01T00:58:25.516Z,6.47
2023-03-01T01:03:17.454Z,7.40
2023-03-01T01:08:09.333Z,6.85
2023-03-01T01:13:01.124Z,6.40
2023-03-01T01:17:52.972Z,7.50
2023-03-01T01:22:44.793Z,6.32
2023-03-01T01:27:36.689Z,6.72
2023-03-01T01:32:29.454Z,7.18
2023-03-01T01:37:21.639Z,7.07
2023-03-01T01:42:18.146Z,6.27
2023-03-01T01:47:21.654Z,6.47
2023-03-01T01:52:27.953Z,6.70
2023-03-01T01:57:25.135Z,7.63
2023-03-01T02:02:17.328Z,7.35
2023-03-01T02:07:15.623Z,7.82
2023-03-01T02:12:08.113Z,7.00
2023-03-01T02:16:59.987Z,6.95
2023-03-01T02:22:13.408Z,7.32
2023-03-01T02:27:05.905Z,6.85
2023-03-01T02:31:59.710Z,6.70
2023-03-01T02:37:02.308Z,7.13
2023-03-01T02:41:55.679Z,6.80
2023-03-01T02:46:51.991Z,6.97
2023-03-01T02:51:52.956Z,6.18
2023-03-01T02:56:45.514Z,7.22
2023-03-01T03:01:37.626Z,7.40
2023-03-01T03:06:31.851Z,6.57
2023-03-01T03:11:24.580Z,6.85
2023-03-01T03:16:16.763Z,6.60
2023-03-01T03:21:11.483Z,7.20
2023-03-01T03:26:05.276Z,6.95
2023-03-01T03:30:57.357Z,6.90
2023-03-01T03:35:50.371Z,7.27
2023-03-01T03:40:51.049Z,6.65
2023-03-01T03:45:44.620Z,7.63
2023-03-01T03:50:37.346Z,7.45
2023-03-01T03:55:32.230Z,7.72
2023-03-01T04:00:25.158Z,6.65
2023-03-01T04:10:17.895Z,7.18
2023-03-01T04:15:14.388Z,6.55
2023-03-01T04:20:07.882Z,6.53
2023-03-01T04:25:02.971Z,6.45
2023-03-01T04:29:54.838Z,7.00
2023-03-01T04:34:46.682Z,6.57
2023-03-01T04:39:46.569Z,6.72
2023-03-01T04:44:38.909Z,6.63
2023-03-01T04:49:30.967Z,6.60
2023-03-01T04:54:22.824Z,6.88
2023-03-01T04:59:14.779Z,6.25
2023-03-01T05:04:06.809Z,6.53
2023-03-01T05:08:59.280Z,7.82
2023-03-01T05:13:56.104Z,6.35
2023-03-01T05:18:48.155Z,8.98
2023-03-01T05:23:40.356Z,7.60
2023-03-01T05:28:32.570Z,6.47
2023-03-01T05:33:24.969Z,7.70
2023-03-01T05:38:17.581Z,6.87
2023-03-01T05:43:09.396Z,6.85
2023-03-01T05:48:01.274Z,6.50
2023-03-01T05:53:06.669Z,7.18
2023-03-01T05:58:07.394Z,6.28
2023-03-01T06:02:59.934Z,6.13
2023-03-01T06:07:52.386Z,6.43
2023-03-01T06:12:44.762Z,6.07
2023-03-01T06:17:41.609Z,6.97
2023-03-01T06:22:33.498Z,6.72
2023-03-01T06:27:25.751Z,6.82
2023-03-01T06:32:17.903Z,6.70
2023-03-01T06:37:09.899Z,7.20
2023-03-01T06:42:01.883Z,6.32
2023-03-01T06:46:53.853Z,6.80
2023-03-01T06:51:45.868Z,6.70
2023-03-01T06:56:37.795Z,6.97
2023-03-01T07:01:30.723Z,6.22
2023-03-01T07:06:23.037Z,7.05
2023-03-01T07:11:15.362Z,5.83
2023-03-01T07:16:08.183Z,6.37
2023-03-01T07:21:04.592Z,6.68
2023-03-01T07:25:56.469Z,6.78
2023-03-01T07:30:48.561Z,6.03
2023-03-01T07:35:40.507Z,6.50
2023-03-01T07:40:32.623Z,7.22
2023-03-01T07:45:26.118Z,6.33
2023-03-01T07:50:18.256Z,6.75
2023-03-01T07:55:10.246Z,6.17
2023-03-01T08:00:02.130Z,6.57
2023-03-01T08:05:04.281Z,6.63
2023-03-01T08:09:56.357Z,6.40
2023-03-01T08:14:48.239Z,6.68
2023-03-01T08:19:40.072Z,6.75
2023-03-01T08:24:32.037Z,6.43
2023-03-01T08:29:25.746Z,7.40
2023-03-01T08:34:19.141Z,6.78
2023-03-01T08:39:13.390Z,6.18
2023-03-01T08:44:06.919Z,6.28
2023-03-01T08:48:58.885Z,7.10
2023-03-01T08:53:50.876Z,7.07
2023-03-01T08:58:46.221Z,6.88
2023-03-01T09:03:38.270Z,6.45
2023-03-01T09:08:30.275Z,6.80
2023-03-01T09:13:24.770Z,6.38
2023-03-01T09:18:16.574Z,6.43
2023-03-01T09:23:08.454Z,6.22
2023-03-01T09:28:00.280Z,6.38
2023-03-01T09:32:52.179Z,7.13
2023-03-01T09:37:45.738Z,5.82
2023-03-01T09:42:48.026Z,5.55
2023-03-01T09:47:41.383Z,6.83
2023-03-01T09:52:43.233Z,6.40
2023-03-01T09:57:44.801Z,6.78
2023-03-01T10:02:40.661Z,6.28
2023-03-01T10:07:47.121Z,7.18
2023-03-01T10:12:41.334Z,5.80
2023-03-01T10:17:53.167Z,7.13
2023-03-01T10:22:51.499Z,6.10
2023-03-01T10:27:56.050Z,6.43
2023-03-01T10:32:50.645Z,7.95
2023-03-01T10:38:10.920Z,6.68
2023-03-01T10:43:06.970Z,6.30
2023-03-01T10:48:17.180Z,5.85
2023-03-01T10:53:23.160Z,6.50
2023-03-01T10:58:20.510Z,6.30
2023-03-01T11:03:14.790Z,6.72
2023-03-01T11:08:06.689Z,7.80
2023-03-01T11:13:08.808Z,7.45
2023-03-01T11:18:09.335Z,6.50
2023-03-01T11:23:14.182Z,5.97
2023-03-01T11:28:07.779Z,6.60
2023-03-01T11:33:09.062Z,5.68
2023-03-01T11:38:10.899Z,5.93
2023-03-01T11:43:17.275Z,6.32
2023-03-01T11:48:49.324Z,7.05
2023-03-01T11:54:08.533Z,6.00
2023-03-01T11:59:09.600Z,6.40
2023-03-01T12:04:29.661Z,6.32
2023-03-01T12:09:49.142Z,6.75
2023-03-01T12:14:56.315Z,5.82
2023-03-01T12:20:00.166Z,5.97
2023-03-01T12:25:01.038Z,7.22
2023-03-01T12:30:01.973Z,5.85
2023-03-01T12:35:23.881Z,6.60
2023-03-01T12:40:35.817Z,6.10
2023-03-01T12:45:44.424Z,6.55
2023-03-01T12:50:39.165Z,6.68
2023-03-01T12:55:40.015Z,6.70
2023-03-01T13:00:38.155Z,6.53
2023-03-01T13:05:48.310Z,5.82
2023-03-01T13:11:03.260Z,6.35
2023-03-01T13:15:56.432Z,5.78
2023-03-01T13:20:50.334Z,5.95
2023-03-01T13:26:01.000Z,5.63
2023-03-01T13:30:52.844Z,5.90
2023-03-01T13:35:45.781Z,5.95
2023-03-01T13:45:35.414Z,7.80
2023-03-01T13:50:30.499Z,5.90
2023-03-01T13:55:26.264Z,5.60
2023-03-01T14:00:30.146Z,5.97
2023-03-01T14:05:22.092Z,5.28
2023-03-01T14:10:14.549Z,5.23
2023-03-01T14:15:14.489Z,5.63
2023-03-01T14:20:14.367Z,5.47
2023-03-01T14:25:21.646Z,6.13
2023-03-01T14:30:24.165Z,5.93
2023-03-01T14:35:25.708Z,5.88
2023-03-01T14:40:32.407Z,5.65
2023-03-01T14:45:27.181Z,6.18
2023-03-01T14:50:30.751Z,6.30
2023-03-01T14:55:43.492Z,5.80
2023-03-01T15:00:35.673Z,5.65
2023-03-01T15:05:33.208Z,5.60
2023-03-01T15:10:30.825Z,5.35
2023-03-01T15:15:22.647Z,6.15
2023-03-01T15:20:19.684Z,5.68
2023-03-01T15:25:26.307Z,5.43
2023-03-01T15:30:28.324Z,5.85
2023-03-01T15:35:43.310Z,5.18
2023-03-01T15:40:38.490Z,5.40
2023-03-01T15:45:31.854Z,5.07
2023-03-01T15:50:26.480Z,5.03
2023-03-01T15:55:24.182Z,5.32
2023-03-01T16:00:16.783Z,5.43
2023-03-01T16:05:32.942Z,5.60
2023-03-01T16:10:25.652Z,5.50
2023-03-01T16:15:20.654Z,5.20
2023-03-01T16:20:19.807Z,5.20
2023-03-01T16:25:20.185Z,5.53
2023-03-01T16:30:13.635Z,5.55
2023-03-01T16:35:06.306Z,5.65
2023-03-01T16:39:58.166Z,5.57
2023-03-01T16:44:50.122Z,4.97
2023-03-01T16:49:42.087Z,5.63
2023-03-01T16:54:34.102Z,5.68
2023-03-01T16:59:26.002Z,5.50
2023-03-01T17:04:19.388Z,6.18
2023-03-01T17:09:12.926Z,5.03
2023-03-01T17:14:04.970Z,5.55
2023-03-01T17:18:57.642Z,5.05
2023-03-01T17:23:50.563Z,4.72
2023-03-01T17:28:43.898Z,4.63
2023-03-01T17:33:35.971Z,5.72
2023-03-01T17:38:28.293Z,5.65
2023-03-01T17:43:20.398Z,4.90
2023-03-01T17:48:12.241Z,5.30
2023-03-01T17:53:09.250Z,4.97
2023-03-01T17:58:01.039Z,5.15
2023-03-01T18:02:54.069Z,5.40
2023-03-01T18:12:38.315Z,5.10
2023-03-01T18:17:30.153Z,4.72
2023-03-01T18:22:22.190Z,5.38
2023-03-01T18:27:14.191Z,4.82
2023-03-01T18:32:06.854Z,5.57
2023-03-01T18:37:14.181Z,5.53
2023-03-01T18:42:06.252Z,4.00
2023-03-01T18:46:58.386Z,5.22
2023-03-01T18:51:50.829Z,5.17
2023-03-01T18:56:42.719Z,4.13
2023-03-01T19:01:37.286Z,4.45
2023-03-01T19:06:33.320Z,5.05
2023-03-01T19:11:27.473Z,4.75
2023-03-01T19:16:22.062Z,4.93
2023-03-01T19:21:14.005Z,4.43
2023-03-01T19:26:09.507Z,4.40
2023-03-01T19:31:06.655Z,6.35
2023-03-01T19:35:59.159Z,4.28
2023-03-01T19:40:51.285Z,5.40
2023-03-01T19:45:43.578Z,4.85
2023-03-01T19:50:35.505Z,4.07
2023-03-01T19:55:27.453Z,4.97
2023-03-01T20:00:19.672Z,4.68
2023-03-01T20:05:11.656Z,4.20
2023-03-01T20:10:03.787Z,4.28
2023-03-01T20:14:57.098Z,4.50
2023-03-01T20:19:49.435Z,4.18
2023-03-01T20:24:44.209Z,4.43
2023-03-01T20:29:36.184Z,4.82
2023-03-01T20:34:28.338Z,7.20
2023-03-01T20:39:20.547Z,4.63
2023-03-01T20:44:12.415Z,5.00
2023-03-01T20:49:04.782Z,4.60
2023-03-01T20:53:57.185Z,4.97
2023-03-01T20:58:49.486Z,4.70
2023-03-01T21:03:41.431Z,4.40
2023-03-01T21:08:35.078Z,4.60
2023-03-01T21:13:28.157Z,3.75
2023-03-01T21:18:20.596Z,4.55
2023-03-01T21:23:12.587Z,3.97
2023-03-01T21:28:04.970Z,3.80
2023-03-01T21:32:57.181Z,5.15
2023-03-01T21:37:49.790Z,4.50
2023-03-01T21:42:44.364Z,4.50
2023-03-01T21:47:36.374Z,4.82
2023-03-01T21:52:28.240Z,5.35
2023-03-01T21:57:20.205Z,4.32
2023-03-01T22:02:12.780Z,4.70
2023-03-01T22:07:04.583Z,4.28
2023-03-01T22:12:02.864Z,4.35
2023-03-01T22:16:54.987Z,4.25
2023-03-01T22:21:49.874Z,3.97
2023-03-01T22:26:43.638Z,4.28
2023-03-01T22:31:36.076Z,4.07
2023-03-01T22:36:28.735Z,4.68
2023-03-01T22:41:20.632Z,3.83
2023-03-01T22:46:15.943Z,4.50
2023-03-01T22:51:07.919Z,4.60
2023-03-01T22:55:59.839Z,4.10
2023-03-01T23:00:51.658Z,3.90
2023-03-01T23:05:43.587Z,4.43
2023-03-01T23:10:35.426Z,4.25
2023-03-01T23:15:27.342Z,4.80
2023-03-01T23:20:19.312Z,4.03
2023-03-01T23:25:15.066Z,4.57
2023-03-01T23:30:08.355Z,4.30
2023-03-01T23:35:00.258Z,4.45
2023-03-01T23:39:52.127Z,3.75
2023-03-01T23:44:44.245Z,3.58
2023-03-01T23:49:36.289Z,4.10
2023-03-01T23:54:28.361Z,3.58
2023-03-01T23:59:22.032Z,4.60
